Time;durP1;ratioP1;P1;durP2;ratioP2;P2;SDS_P1;SDS_P2;PMS_P1;PMS_P2;Temp;Humidity;BMP_temperature;BMP_pressure;BME280_temperature;BME280_humidity;BME280_pressure;Samples;Min_cycle;Max_cycle;Signal;HPM_P1;HPM_P2
2022/02/02 00:00:27;;;;;;;;;0.00;0.00;;;;;19.88;50.41;102049.63;5030938;28;45265;-76
2022/02/02 00:02:58;;;;;;;;;1.00;1.00;;;;;19.85;50.32;102056.09;5032199;28;45617;-75
2022/02/02 00:05:30;;;;;;;;;0.00;0.00;;;;;19.80;50.30;102052.88;5031007;28;46114;-75
2022/02/02 00:08:04;;;;;;;;;2.00;1.00;;;;;19.85;50.26;102052.53;5030484;28;45511;-75
2022/02/02 00:13:06;;;;;;;;;3.00;2.00;;;;;19.83;50.34;102054.50;5031729;28;45474;-76
2022/02/02 00:15:45;;;;;;;;;1.67;1.67;;;;;19.83;50.76;102066.13;5030107;28;45621;-76
2022/02/02 00:21:00;;;;;;;;;1.00;1.00;;;;;19.81;50.43;102068.06;5032467;28;45389;-76
2022/02/02 00:23:31;;;;;;;;;2.00;2.00;;;;;19.77;50.75;102060.34;5027817;28;45495;-76
2022/02/02 00:26:02;;;;;;;;;2.67;2.67;;;;;19.80;50.45;102069.06;5049527;28;45606;-76
2022/02/02 00:28:32;;;;;;;;;1.33;1.33;;;;;19.79;50.59;102069.16;5053537;28;45393;-76
2022/02/02 00:31:02;;;;;;;;;0.67;0.67;;;;;19.77;50.24;102074.66;5053875;28;45406;-75
2022/02/02 00:33:32;;;;;;;;;1.00;1.00;;;;;19.77;50.38;102071.13;5052889;28;45725;-76
2022/02/02 00:36:07;;;;;;;;;3.00;1.67;;;;;19.77;50.33;102077.34;5055344;28;45452;-76
2022/02/02 00:38:32;;;;;;;;;3.67;2.00;;;;;19.75;50.38;102073.91;5053170;28;50127;-76
2022/02/02 00:40:57;;;;;;;;;1.00;1.00;;;;;19.75;50.66;102063.13;5049046;28;45908;-76
2022/02/02 00:43:23;;;;;;;;;2.00;2.00;;;;;19.68;50.97;102051.94;5047338;28;45745;-76
2022/02/02 00:45:49;;;;;;;;;0.00;0.00;;;;;19.74;50.26;102056.00;5052594;28;45543;-76
2022/02/02 00:48:16;;;;;;;;;3.00;1.67;;;;;19.73;50.52;102056.97;5053660;28;45416;-76
2022/02/02 00:50:42;;;;;;;;;2.00;2.00;;;;;19.72;50.84;102060.66;5047993;28;45504;-76
2022/02/02 00:53:10;;;;;;;;;1.67;1.67;;;;;19.70;50.63;102068.00;5048330;28;46217;-76
2022/02/02 00:55:35;;;;;;;;;1.00;1.00;;;;;19.64;50.73;102057.66;5052443;28;45451;-75
2022/02/02 00:58:01;;;;;;;;;1.00;1.00;;;;;19.69;50.55;102080.59;5052404;28;45535;-76
2022/02/02 01:00:26;;;;;;;;;2.00;2.00;;;;;19.69;50.29;102083.28;5051454;28;45806;-76
2022/02/02 01:02:51;;;;;;;;;1.00;1.00;;;;;19.68;50.26;102078.88;5053389;28;45553;-76
2022/02/02 01:05:17;;;;;;;;;1.00;1.00;;;;;19.67;50.67;102074.47;5052593;28;46425;-76
2022/02/02 01:10:46;;;;;;;;;1.67;1.67;;;;;19.67;50.24;102079.00;5052069;28;45446;-76
2022/02/02 01:21:17;;;;;;;;;2.33;1.00;;;;;19.59;50.57;102069.63;5050726;28;45612;-75
2022/02/02 01:29:10;;;;;;;;;1.00;1.00;;;;;19.61;50.28;102075.78;5045759;28;45474;-76
2022/02/02 01:31:35;;;;;;;;;0.67;0.67;;;;;19.60;50.69;102078.56;5050837;28;45413;-76
2022/02/02 01:34:00;;;;;;;;;2.00;2.00;;;;;19.59;50.18;102066.91;5050755;28;45542;-75
2022/02/02 01:36:26;;;;;;;;;3.33;2.00;;;;;19.57;50.23;102063.50;5047221;28;56789;-75
2022/02/02 01:38:53;;;;;;;;;2.33;1.00;;;;;19.58;50.48;102078.66;5051599;28;45401;-76
2022/02/02 01:41:27;;;;;;;;;2.00;2.00;;;;;19.57;50.39;102071.56;5043222;28;45516;-76
2022/02/02 01:44:01;;;;;;;;;2.00;1.67;;;;;19.55;50.36;102078.91;5045804;28;45237;-75
2022/02/02 01:46:31;;;;;;;;;1.67;1.67;;;;;19.56;50.50;102079.75;5050481;28;46481;-75
2022/02/02 01:49:56;;;;;;;;;1.00;1.00;;;;;19.57;50.58;102085.03;5049472;28;45445;-76
2022/02/02 01:52:13;;;;;;;;;0.00;0.00;;;;;19.56;50.59;102080.63;5044730;28;45713;-75
2022/02/02 01:54:54;;;;;;;;;2.00;2.00;;;;;19.55;50.33;102084.28;5051434;28;45529;-75
2022/02/02 01:59:53;;;;;;;;;2.00;2.00;;;;;19.54;50.64;102079.84;5051552;28;45419;-76
2022/02/02 02:02:19;;;;;;;;;2.00;2.00;;;;;19.53;50.67;102083.53;5052762;28;45480;-75
2022/02/02 02:04:45;;;;;;;;;1.33;1.33;;;;;19.54;50.32;102087.09;5051990;28;45558;-76
2022/02/02 02:07:10;;;;;;;;;1.00;1.00;;;;;19.53;50.78;102080.00;5050899;28;45487;-76
2022/02/02 02:09:36;;;;;;;;;2.00;2.00;;;;;19.49;50.63;102072.13;5048513;28;46010;-75
2022/02/02 02:12:04;;;;;;;;;1.33;1.33;;;;;19.52;50.68;102084.50;5054203;28;45498;-76
2022/02/02 02:14:41;;;;;;;;;1.00;1.00;;;;;19.49;50.17;102093.66;5035372;28;45476;-75
2022/02/02 02:17:07;;;;;;;;;2.00;2.00;;;;;19.48;50.56;102080.31;5051102;28;45497;-75
2022/02/02 02:19:35;;;;;;;;;3.00;2.00;;;;;19.49;50.72;102084.72;5051967;28;45346;-76
2022/02/02 02:22:01;;;;;;;;;2.67;2.00;;;;;19.48;50.64;102077.59;5050997;28;45451;-76
2022/02/02 02:24:26;;;;;;;;;0.33;0.33;;;;;19.42;50.39;102070.81;5061720;28;45537;-76
2022/02/02 02:26:51;;;;;;;;;2.00;2.00;;;;;19.47;50.70;102073.19;5051497;28;46419;-76
2022/02/02 02:29:34;;;;;;;;;1.00;1.00;;;;;19.45;50.89;102073.31;5045615;28;45720;-77
2022/02/02 02:34:40;;;;;;;;;1.67;1.67;;;;;19.44;50.82;102076.97;5051404;28;45454;-76
2022/02/02 02:39:50;;;;;;;;;1.00;1.00;;;;;19.43;50.51;102077.94;5048839;28;45598;-75
2022/02/02 02:56:28;;;;;;;;;2.67;2.00;;;;;19.40;50.44;102072.78;4932210;28;45474;-76
2022/02/02 02:59:34;;;;;;;;;1.00;1.00;;;;;19.37;49.99;102067.59;4934298;28;46137;-76
2022/02/02 03:03:07;;;;;;;;;1.00;1.00;;;;;19.38;50.19;102074.72;4930995;28;45618;-76
2022/02/02 03:32:42;;;;;;;;;2.67;1.00;;;;;19.34;50.43;102073.22;5021212;28;45556;-76
2022/02/02 03:59:45;;;;;;;;;3.00;3.00;;;;;19.29;50.70;102088.81;4972621;28;45702;-75
2022/02/02 04:04:38;;;;;;;;;3.00;3.00;;;;;19.28;50.31;102085.25;4971874;28;45567;-75
2022/02/02 04:07:15;;;;;;;;;2.00;2.00;;;;;19.27;50.70;102090.75;4969802;28;45597;-75
2022/02/02 04:09:42;;;;;;;;;2.00;2.00;;;;;19.26;50.71;102084.53;4972739;28;45605;-75
2022/02/02 04:15:32;;;;;;;;;1.00;1.00;;;;;19.27;50.62;102088.94;4972509;28;45483;-75
2022/02/02 04:59:12;;;;;;;;;4.00;3.00;;;;;19.21;50.69;102106.34;5030566;28;46238;-75
2022/02/02 05:09:27;;;;;;;;;3.00;3.00;;;;;19.19;50.56;102089.47;5053846;28;45415;-75
2022/02/02 05:52:04;;;;;;;;;4.33;1.67;;;;;19.20;50.69;102110.03;4997955;28;45758;-75
2022/02/02 05:54:30;;;;;;;;;1.67;1.67;;;;;19.22;50.77;102112.63;5008864;28;45413;-75
2022/02/02 05:56:55;;;;;;;;;2.00;2.00;;;;;19.25;50.69;102117.78;5012591;28;45293;-75
2022/02/02 05:59:25;;;;;;;;;1.00;1.00;;;;;19.27;50.35;102107.78;5006459;28;46765;-75
2022/02/02 06:01:57;;;;;;;;;3.00;3.00;;;;;19.31;50.80;102108.41;5005649;28;45641;-75
2022/02/02 06:04:25;;;;;;;;;2.00;2.00;;;;;19.35;50.39;102120.69;5009569;28;46994;-75
2022/02/02 06:06:52;;;;;;;;;2.00;2.00;;;;;19.39;50.84;102127.59;5001460;28;45558;-75
2022/02/02 06:09:19;;;;;;;;;3.33;2.00;;;;;19.43;50.74;102125.53;4989465;28;45411;-75
2022/02/02 06:11:50;;;;;;;;;1.67;1.33;;;;;19.46;50.74;102122.66;4991562;28;47966;-75
2022/02/02 06:14:18;;;;;;;;;2.00;2.00;;;;;19.49;50.62;102120.59;4985742;28;45363;-75
2022/02/02 06:16:45;;;;;;;;;2.67;2.33;;;;;19.54;50.44;102132.88;4992050;28;45473;-75
2022/02/02 06:19:10;;;;;;;;;1.33;1.00;;;;;19.57;50.70;102138.03;4993213;28;45646;-74
2022/02/02 06:21:36;;;;;;;;;2.00;2.00;;;;;19.60;50.18;102140.50;5028605;28;45576;-78
2022/02/02 06:24:19;;;;;;;;;3.00;3.00;;;;;19.62;50.58;102142.13;5054248;28;45348;-80
2022/02/02 06:26:48;;;;;;;;;1.00;1.00;;;;;19.67;50.16;102139.13;5045978;28;45554;-78
2022/02/02 06:29:15;;;;;;;;;3.33;2.00;;;;;19.66;49.98;102147.31;5048655;28;45491;-77
2022/02/02 06:31:41;;;;;;;;;1.00;1.00;;;;;19.69;50.67;102152.47;5046980;28;45463;-77
2022/02/02 06:34:10;;;;;;;;;1.00;1.00;;;;;19.74;50.53;102147.59;5050175;28;45534;-78
2022/02/02 06:36:38;;;;;;;;;2.00;2.00;;;;;19.76;49.96;102151.06;5046631;28;45723;-76
2022/02/02 06:39:05;;;;;;;;;3.00;2.00;;;;;19.79;49.82;102156.25;5049312;28;45518;-76
2022/02/02 06:41:31;;;;;;;;;4.00;3.00;;;;;19.79;49.85;102156.25;5048821;28;46427;-76
2022/02/02 06:43:56;;;;;;;;;1.33;1.33;;;;;19.83;50.36;102159.56;5047007;28;45480;-76
2022/02/02 06:46:28;;;;;;;;;2.33;2.00;;;;;19.82;49.66;102164.09;5047007;28;48366;-77
2022/02/02 06:48:53;;;;;;;;;1.00;1.00;;;;;19.82;50.07;102157.88;5050001;28;46696;-77
2022/02/02 06:51:29;;;;;;;;;2.00;2.00;;;;;19.87;50.07;102161.94;5042855;28;48926;-77
2022/02/02 06:54:03;;;;;;;;;4.33;2.00;;;;;19.83;50.17;102154.19;5037399;28;45485;-78
2022/02/02 07:04:44;;;;;;;;;1.00;1.00;;;;;19.90;49.25;102165.41;5043592;28;45504;-77
2022/02/02 07:07:24;;;;;;;;;2.00;2.00;;;;;19.88;49.62;102166.34;5052834;28;45425;-77
2022/02/02 07:14:22;;;;;;;;;3.00;3.00;;;;;19.87;50.01;102171.88;5078476;27;45497;-80
2022/02/02 07:16:26;;;;;;;;;2.00;2.00;;;;;19.88;50.80;102176.28;5065413;27;45477;-82
2022/02/02 07:21:41;;;;;;;;;2.67;1.00;;;;;20.04;50.67;102192.25;5056377;28;45406;-81
2022/02/02 07:32:26;;;;;;;;;4.00;3.33;;;;;20.38;51.20;102184.41;5064912;27;45523;-83
2022/02/02 07:35:22;;;;;;;;;3.33;3.33;;;;;20.48;51.28;102189.13;5066486;27;45724;-82
2022/02/02 07:37:58;;;;;;;;;6.67;4.00;;;;;20.63;50.82;102201.47;5060466;28;45589;-80
2022/02/02 07:40:26;;;;;;;;;4.00;2.67;;;;;20.75;51.05;102202.41;5073889;27;45696;-80
2022/02/02 07:42:55;;;;;;;;;4.33;3.00;;;;;20.80;50.87;102200.22;5063083;28;45517;-84
2022/02/02 07:45:21;;;;;;;;;4.00;3.00;;;;;20.88;50.71;102202.38;5050359;28;47416;-84
2022/02/02 07:47:58;;;;;;;;;3.33;3.00;;;;;20.93;50.94;102197.47;5069226;27;45506;-84
2022/02/02 07:50:25;;;;;;;;;6.67;3.00;;;;;20.98;50.49;102198.97;5061780;27;45564;-82
2022/02/02 07:52:51;;;;;;;;;4.00;2.00;;;;;21.02;50.94;102201.34;5062690;27;45617;-80
2022/02/02 07:55:18;;;;;;;;;5.67;4.00;;;;;21.06;50.90;102201.97;5063208;28;46657;-83
2022/02/02 07:57:46;;;;;;;;;6.33;5.00;;;;;21.12;50.61;102215.00;5059035;27;45621;-87
2022/02/02 08:00:19;;;;;;;;;7.00;5.00;;;;;21.22;50.92;102214.28;5061303;27;45541;-84
2022/02/02 08:05:22;;;;;;;;;4.67;4.00;;;;;21.44;50.44;102216.19;5058848;27;45535;-89
2022/02/02 08:07:59;;;;;;;;;7.00;4.00;;;;;21.53;50.59;102215.47;5059676;27;45447;-83
2022/02/02 08:10:26;;;;;;;;;4.67;3.67;;;;;21.62;50.34;102207.66;5061130;27;45628;-83
2022/02/02 08:15:20;;;;;;;;;2.33;2.33;;;;;21.79;50.39;102217.16;5063006;27;45574;-79
2022/02/02 08:17:48;;;;;;;;;5.00;3.67;;;;;21.84;50.59;102217.66;5063005;27;45675;-81
2022/02/02 08:20:14;;;;;;;;;3.67;3.67;;;;;21.89;50.08;102215.44;5063393;27;46528;-80
2022/02/02 08:22:40;;;;;;;;;5.33;3.00;;;;;21.96;50.01;102213.13;5062226;27;45605;-80
2022/02/02 08:25:08;;;;;;;;;3.00;2.00;;;;;22.00;50.36;102211.00;5050213;28;45956;-78
2022/02/02 08:27:39;;;;;;;;;3.00;3.00;;;;;22.07;50.27;102220.38;5050419;28;45517;-78
2022/02/02 08:30:10;;;;;;;;;7.67;5.00;;;;;22.13;50.16;102221.69;5050104;28;45438;-76
2022/02/02 08:32:42;;;;;;;;;4.67;2.33;;;;;22.16;49.78;102218.75;5048858;28;45450;-78
2022/02/02 08:35:09;;;;;;;;;2.67;2.67;;;;;22.18;50.27;102228.47;5050077;28;45485;-84
2022/02/02 08:37:36;;;;;;;;;3.00;2.33;;;;;22.22;50.08;102229.94;5049293;28;45605;-88
2022/02/02 08:42:47;;;;;;;;;4.00;3.00;;;;;22.27;50.07;102229.56;5048228;28;45467;-87
2022/02/02 08:45:22;;;;;;;;;7.67;6.00;;;;;22.30;50.12;102239.28;5053973;28;46289;-93
2022/02/02 08:47:57;;;;;;;;;5.67;2.00;;;;;22.31;50.17;102228.34;5052989;28;45565;-89
2022/02/02 08:50:42;;;;;;;;;2.67;2.00;;;;;22.34;49.86;102229.94;5056070;28;45617;-88
2022/02/02 08:58:37;;;;;;;;;12.67;8.67;;;;;22.31;49.07;102233.75;5052258;28;45537;-90
2022/02/02 09:01:09;;;;;;;;;11.00;8.33;;;;;22.27;49.43;102232.25;5056588;28;45826;-95
2022/02/02 09:06:27;;;;;;;;;10.33;9.33;;;;;22.21;48.90;102238.19;5011811;28;46031;-92
2022/02/02 09:09:01;;;;;;;;;11.00;8.33;;;;;22.17;49.51;102242.13;5012801;28;45470;-92
2022/02/02 09:23:24;;;;;;;;;10.00;7.67;;;;;22.08;49.38;102238.31;5011955;28;49996;-93
2022/02/02 09:25:14;;;;;;;;;20.33;9.33;;;;;22.07;49.89;102233.91;5008771;28;45512;-80
2022/02/02 09:33:48;;;;;;;;;5.67;5.67;;;;;22.32;49.95;102221.94;5010127;28;45701;-90
2022/02/02 09:35:54;;;;;;;;;9.67;7.67;;;;;22.40;49.04;102231.28;5006694;28;45556;-83
2022/02/02 09:38:21;;;;;;;;;14.33;10.67;;;;;22.37;48.75;102224.28;5004622;28;46348;-82
2022/02/02 09:41:19;;;;;;;;;16.67;8.67;;;;;22.37;48.59;102232.41;5005542;28;45522;-86
2022/02/02 09:43:37;;;;;;;;;11.67;10.00;;;;;22.30;48.43;102220.34;5031973;28;45891;-87
2022/02/02 09:46:08;;;;;;;;;8.67;7.33;;;;;22.34;48.66;102244.31;5046383;28;45711;-87
2022/02/02 09:48:44;;;;;;;;;12.33;7.67;;;;;22.31;48.55;102239.16;5050309;28;46472;-86
2022/02/02 09:51:14;;;;;;;;;12.67;6.33;;;;;22.27;48.35;102226.84;5054025;28;45544;-87
2022/02/02 09:53:45;;;;;;;;;6.00;4.00;;;;;22.25;48.45;102231.53;5051985;28;45497;-82
2022/02/02 10:04:32;;;;;;;;;11.67;6.67;;;;;22.27;48.92;102247.66;5048494;28;45506;-82
2022/02/02 10:15:26;;;;;;;;;24.67;14.33;;;;;22.22;48.75;102262.41;5049633;28;45582;-82
2022/02/02 10:18:09;;;;;;;;;15.67;12.33;;;;;22.21;49.42;102263.41;5050089;28;45460;-82
2022/02/02 10:20:36;;;;;;;;;17.33;13.00;;;;;22.19;49.21;102253.69;5051795;28;45736;-83
2022/02/02 10:23:04;;;;;;;;;15.00;11.33;;;;;22.17;49.29;102256.50;5048471;28;45476;-81
2022/02/02 10:25:33;;;;;;;;;28.00;19.67;;;;;22.16;49.44;102260.19;5048872;28;45309;-84
2022/02/02 10:28:11;;;;;;;;;19.67;15.00;;;;;22.13;48.95;102255.03;5051449;28;45550;-77
2022/02/02 10:30:40;;;;;;;;;10.67;7.00;;;;;22.09;47.01;102251.72;5048242;28;46141;-90
2022/02/02 10:33:10;;;;;;;;;8.67;6.33;;;;;21.99;46.79;102253.44;5050350;28;46437;-80
2022/02/02 10:35:38;;;;;;;;;24.33;15.00;;;;;21.96;47.44;102253.66;5049276;28;45555;-80
2022/02/02 10:38:11;;;;;;;;;17.00;10.67;;;;;21.96;47.99;102259.91;5047680;28;45620;-77
2022/02/02 10:43:37;;;;;;;;;16.33;11.00;;;;;22.11;47.78;102276.78;5048206;28;45759;-77
2022/02/02 10:46:10;;;;;;;;;16.33;9.00;;;;;22.20;48.31;102274.31;5047914;28;45756;-77
2022/02/02 10:48:41;;;;;;;;;18.00;12.67;;;;;22.25;48.22;102270.25;5049751;28;45526;-77
2022/02/02 10:51:15;;;;;;;;;14.00;10.00;;;;;22.36;47.81;102274.81;5051040;28;46234;-72
2022/02/02 10:53:59;;;;;;;;;19.67;9.67;;;;;22.46;48.11;102268.66;5048307;28;45575;-78
2022/02/02 11:07:09;;;;;;;;;8.33;7.00;;;;;22.95;47.81;102268.34;5015427;28;45736;-75
2022/02/02 11:09:35;;;;;;;;;9.67;7.00;;;;;22.98;47.93;102268.97;5020779;28;45631;-75
2022/02/02 11:12:02;;;;;;;;;13.67;8.67;;;;;23.07;47.90;102266.47;5020693;28;46418;-76
2022/02/02 11:14:36;;;;;;;;;11.00;9.67;;;;;23.13;47.70;102264.09;5018539;28;45759;-77
2022/02/02 11:17:20;;;;;;;;;15.00;7.67;;;;;23.20;47.90;102268.97;5028821;28;45842;-77
2022/02/02 11:19:49;;;;;;;;;10.00;8.33;;;;;23.24;47.96;102259.63;5020227;28;46365;-83
2022/02/02 11:22:31;;;;;;;;;8.67;8.00;;;;;23.26;47.56;102263.91;5023992;28;49397;-78
2022/02/02 11:25:22;;;;;;;;;13.67;10.67;;;;;23.29;47.71;102265.50;5016083;28;45553;-77
2022/02/02 11:27:50;;;;;;;;;10.00;7.33;;;;;23.30;47.63;102262.66;5025974;28;45881;-78
2022/02/02 11:30:24;;;;;;;;;9.67;7.00;;;;;23.30;47.66;102265.38;5027721;28;45549;-77
2022/02/02 11:32:52;;;;;;;;;10.33;6.67;;;;;23.32;47.79;102270.66;5024945;28;46199;-78
2022/02/02 11:38:19;;;;;;;;;11.00;7.33;;;;;23.36;47.59;102272.16;5024157;28;45669;-78
2022/02/02 11:41:03;;;;;;;;;10.67;6.33;;;;;23.38;47.92;102272.88;5026512;28;46041;-78
2022/02/02 11:43:50;;;;;;;;;8.00;8.00;;;;;23.43;47.62;102267.09;5049272;28;46197;-80
2022/02/02 11:47:21;;;;;;;;;7.00;7.00;;;;;23.49;47.73;102265.69;5050087;28;45476;-80
2022/02/02 11:50:00;;;;;;;;;6.67;5.00;;;;;23.57;47.63;102265.88;5001883;28;45603;-79
2022/02/02 11:52:42;;;;;;;;;10.00;6.67;;;;;23.62;47.60;102257.38;4998227;28;45573;-87
2022/02/02 11:55:10;;;;;;;;;10.00;6.00;;;;;23.70;47.11;102262.97;4983781;28;47270;-84
2022/02/02 11:57:52;;;;;;;;;8.00;6.33;;;;;23.74;47.23;102261.72;5003827;28;45606;-85
2022/02/02 12:57:03;;;;;;;;;9.00;4.00;;;;;23.88;46.56;102244.28;5054895;28;45532;-78
2022/02/02 12:59:41;;;;;;;;;10.67;4.33;;;;;23.90;46.11;102234.13;5050643;28;46444;-79
2022/02/02 13:02:12;;;;;;;;;8.33;6.67;;;;;23.95;46.35;102231.03;5049814;28;45526;-78
2022/02/02 13:04:40;;;;;;;;;5.67;5.00;;;;;23.97;45.84;102236.28;5051214;28;45452;-84
2022/02/02 13:07:16;;;;;;;;;9.67;4.00;;;;;23.97;46.74;102236.28;5046046;28;45570;-78
2022/02/02 13:09:47;;;;;;;;;9.67;5.33;;;;;23.98;46.50;102241.59;5046771;28;46201;-76
2022/02/02 13:12:52;;;;;;;;;9.67;6.00;;;;;24.01;46.61;102230.47;5050777;28;45408;-77
2022/02/02 13:18:15;;;;;;;;;9.33;3.33;;;;;24.01;46.34;102225.06;5050614;28;47100;-77
2022/02/02 13:26:28;;;;;;;;;6.33;4.00;;;;;23.98;46.00;102236.16;5059719;27;45526;-77
2022/02/02 13:29:02;;;;;;;;;6.33;3.00;;;;;23.98;45.83;102235.31;5062389;28;45381;-77
2022/02/02 13:31:37;;;;;;;;;4.67;3.00;;;;;24.01;46.26;102248.59;5057731;28;45602;-76
2022/02/02 13:34:10;;;;;;;;;6.00;3.67;;;;;23.99;45.75;102237.88;5044057;28;45387;-78
2022/02/02 13:50:23;;;;;;;;;6.67;5.00;;;;;24.16;46.38;102238.28;5054444;28;45413;-77
2022/02/02 13:53:39;;;;;;;;;10.00;4.00;;;;;24.15;46.55;102237.41;5058943;28;45474;-75
2022/02/02 13:55:49;;;;;;;;;5.33;3.67;;;;;24.16;46.37;102233.69;5046598;28;45707;-76
2022/02/02 14:01:04;;;;;;;;;4.00;4.00;;;;;24.17;46.22;102240.00;5048384;28;45336;-80
2022/02/02 14:09:04;;;;;;;;;6.33;5.00;;;;;24.21;46.65;102233.31;5055046;28;45522;-79
2022/02/02 14:33:03;;;;;;;;;19.00;10.33;;;;;24.39;46.89;102222.63;5063580;28;45538;-76
2022/02/02 14:35:28;;;;;;;;;12.33;9.33;;;;;24.41;46.45;102222.50;5044956;28;46030;-76
2022/02/02 14:37:54;;;;;;;;;42.33;24.67;;;;;24.40;45.41;102234.38;5045564;28;45403;-76
2022/02/02 14:40:42;;;;;;;;;51.33;29.67;;;;;24.27;44.85;102232.75;5047300;28;45407;-77
2022/02/02 14:43:10;;;;;;;;;49.00;31.00;;;;;24.11;44.84;102232.41;5053365;28;45360;-74
2022/02/02 14:45:40;;;;;;;;;47.67;29.67;;;;;24.02;45.06;102223.19;5035746;28;46663;-76
2022/02/02 14:48:12;;;;;;;;;51.33;30.67;;;;;23.91;45.97;102227.72;5050434;28;45534;-76
2022/02/02 14:53:59;;;;;;;;;49.67;33.33;;;;;23.66;45.53;102231.69;5041521;28;45503;-75
2022/02/02 15:28:52;;;;;;;;;41.33;18.33;;;;;23.85;45.91;102221.97;5035991;28;45332;-80
2022/02/02 15:31:17;;;;;;;;;34.33;22.00;;;;;23.88;45.88;102229.84;5045120;28;45469;-78
2022/02/02 15:33:46;;;;;;;;;24.67;16.33;;;;;23.91;45.99;102237.72;5050129;28;45530;-76
2022/02/02 15:38:52;;;;;;;;;24.67;16.67;;;;;23.91;46.03;102237.72;5052028;27;45574;-78
2022/02/02 15:41:24;;;;;;;;;22.00;15.33;;;;;23.92;46.40;102240.25;5055616;28;45458;-76
2022/02/02 15:44:56;;;;;;;;;21.00;15.00;;;;;23.93;46.32;102238.41;5053237;28;45348;-77
2022/02/02 16:01:15;;;;;;;;;15.67;10.67;;;;;24.14;46.33;102238.41;5040953;28;45344;-76
2022/02/02 16:03:03;;;;;;;;;28.00;10.67;;;;;24.22;46.37;102226.88;5049604;28;45241;-77
2022/02/02 16:08:09;;;;;;;;;13.33;7.33;;;;;24.36;46.32;102231.03;5057439;28;46812;-77
2022/02/02 16:11:16;;;;;;;;;15.33;10.00;;;;;24.40;46.25;102239.78;5057814;27;46549;-78
2022/02/02 16:13:41;;;;;;;;;17.33;10.67;;;;;24.42;46.16;102227.81;5059785;28;45388;-80
2022/02/02 16:37:31;;;;;;;;;13.33;10.33;;;;;24.35;46.11;102218.47;5048855;28;45524;-77
2022/02/02 16:39:59;;;;;;;;;13.67;11.33;;;;;24.38;45.95;102229.06;5050274;28;45447;-77
2022/02/02 16:45:11;;;;;;;;;10.67;8.00;;;;;24.34;44.71;102204.06;5048257;28;45530;-85
2022/02/02 16:47:36;;;;;;;;;13.33;9.67;;;;;24.28;44.56;102201.06;5046592;28;45499;-80
2022/02/02 16:50:01;;;;;;;;;14.00;10.33;;;;;24.19;44.55;102203.59;5050344;28;45610;-77
2022/02/02 16:52:30;;;;;;;;;9.67;7.33;;;;;24.15;44.60;102204.84;5051875;28;46371;-75
2022/02/02 16:54:59;;;;;;;;;20.33;11.00;;;;;24.10;44.95;102212.56;5054462;28;45503;-77
2022/02/02 16:57:51;;;;;;;;;12.67;9.33;;;;;24.00;44.80;102200.78;5047651;28;45487;-77
